createdAt,value
2022-08-14T00:02:17.133Z,96718.53
2022-08-14T00:04:45.615Z,96713.38
2022-08-14T00:07:14.837Z,96713.91
2022-08-14T00:09:55.706Z,96718.34
2022-08-14T00:12:39.316Z,96713.03
2022-08-14T00:15:15.011Z,96714.56
2022-08-14T00:17:48.171Z,96707.38
2022-08-14T00:20:31.001Z,96703.34
2022-08-14T00:23:12.401Z,96703.56
2022-08-14T00:25:58.636Z,96708.03
2022-08-14T00:28:37.222Z,96693.81
2022-08-14T00:31:07.822Z,96704.38
2022-08-14T00:33:52.311Z,96706.91
2022-08-14T00:36:35.993Z,96691.66
2022-08-14T00:39:18.286Z,96694.13
2022-08-14T00:41:48.261Z,96698.00
2022-08-14T00:44:27.654Z,96706.28
2022-08-14T00:47:03.498Z,96698.81
2022-08-14T00:49:37.938Z,96686.59
2022-08-14T00:52:07.214Z,96690.03
2022-08-14T00:54:37.362Z,96694.97
2022-08-14T00:57:07.057Z,96689.38
2022-08-14T00:59:39.569Z,96688.47
2022-08-14T01:02:10.657Z,96689.66
2022-08-14T01:04:54.077Z,96684.94
2022-08-14T01:07:24.757Z,96680.50
2022-08-14T01:10:01.653Z,96679.97
2022-08-14T01:12:30.788Z,96676.34
2022-08-14T01:15:03.049Z,96670.06
2022-08-14T01:17:49.793Z,96678.75
2022-08-14T01:20:40.130Z,96672.50
2022-08-14T01:23:16.626Z,96669.75
2022-08-14T01:25:51.329Z,96672.63
2022-08-14T01:28:47.333Z,96671.47
2022-08-14T01:31:15.644Z,96667.03
2022-08-14T01:33:59.859Z,96665.00
2022-08-14T01:36:39.354Z,96667.81
2022-08-14T01:39:13.167Z,96659.72
2022-08-14T01:41:44.198Z,96658.91
2022-08-14T01:44:32.854Z,96657.47
2022-08-14T01:47:21.983Z,96657.97
2022-08-14T01:49:59.699Z,96641.69
2022-08-14T01:53:00.140Z,96652.09
2022-08-14T01:55:30.513Z,96648.28
2022-08-14T01:58:02.249Z,96635.81
2022-08-14T02:00:54.676Z,96639.16
2022-08-14T02:03:30.274Z,96625.31
2022-08-14T02:06:04.163Z,96624.09
2022-08-14T02:08:52.476Z,96621.09
2022-08-14T02:11:24.331Z,96622.91
2022-08-14T02:14:06.834Z,96615.56
2022-08-14T02:16:44.213Z,96616.53
2022-08-14T02:19:17.810Z,96601.97
2022-08-14T02:21:50.553Z,96604.13
2022-08-14T02:24:39.776Z,96601.59
2022-08-14T02:28:23.806Z,96601.38
2022-08-14T02:30:02.187Z,96594.41
2022-08-14T02:32:44.633Z,96588.38
2022-08-14T02:35:17.826Z,96586.94
2022-08-14T02:37:49.145Z,96588.09
2022-08-14T02:40:19.340Z,96584.69
2022-08-14T02:42:54.819Z,96582.41
2022-08-14T02:45:38.511Z,96577.28
2022-08-14T02:49:03.283Z,96572.00
2022-08-14T02:51:07.225Z,96573.53
2022-08-14T02:53:42.387Z,96564.84
2022-08-14T02:56:30.453Z,96560.41
2022-08-14T02:59:07.745Z,96561.78
2022-08-14T03:01:50.162Z,96562.84
2022-08-14T03:04:20.163Z,96557.28
2022-08-14T03:07:06.043Z,96568.94
2022-08-14T03:10:24.181Z,96558.84
2022-08-14T03:12:32.288Z,96560.34
2022-08-14T03:15:13.967Z,96561.72
2022-08-14T03:17:57.181Z,96563.03
2022-08-14T03:20:27.833Z,96560.31
2022-08-14T03:22:57.176Z,96558.59
2022-08-14T03:25:25.409Z,96566.34
2022-08-14T03:27:58.633Z,96566.19
2022-08-14T03:30:39.052Z,96563.94
2022-08-14T03:33:10.329Z,96563.94
2022-08-14T03:35:59.886Z,96557.44
2022-08-14T03:39:11.565Z,96562.44
2022-08-14T03:41:23.287Z,96558.44
2022-08-14T03:43:57.742Z,96553.38
2022-08-14T03:46:51.885Z,96553.25
2022-08-14T03:49:28.925Z,96549.69
2022-08-14T03:52:00.543Z,96549.53
2022-08-14T03:54:30.035Z,96539.75
2022-08-14T03:57:02.861Z,96536.66
2022-08-14T03:59:32.354Z,96535.69
2022-08-14T04:02:04.520Z,96524.06
2022-08-14T04:04:53.396Z,96525.34
2022-08-14T04:07:22.453Z,96523.97
2022-08-14T04:09:51.747Z,96521.78
2022-08-14T04:12:26.392Z,96517.19
2022-08-14T04:14:55.320Z,96519.72
2022-08-14T04:17:26.212Z,96514.38
2022-08-14T04:19:55.345Z,96509.94
2022-08-14T04:22:25.206Z,96514.84
2022-08-14T04:24:53.880Z,96513.53
2022-08-14T04:27:23.254Z,96506.50
2022-08-14T04:29:51.679Z,96504.66
2022-08-14T04:33:01.232Z,96507.88
2022-08-14T04:35:10.746Z,96509.63
2022-08-14T04:37:56.993Z,96496.75
2022-08-14T04:40:42.879Z,96489.03
2022-08-14T04:43:38.520Z,96494.78
2022-08-14T04:46:11.875Z,96485.47
2022-08-14T04:49:00.233Z,96487.16
2022-08-14T04:51:37.551Z,96477.88
2022-08-14T04:54:16.663Z,96485.09
2022-08-14T04:56:45.580Z,96476.53
2022-08-14T04:59:14.022Z,96481.00
2022-08-14T05:01:48.880Z,96476.41
2022-08-14T05:04:20.792Z,96476.91
2022-08-14T05:06:53.667Z,96472.66
2022-08-14T05:09:24.385Z,96488.94
2022-08-14T05:11:53.087Z,96481.09
2022-08-14T05:14:45.802Z,96479.66
2022-08-14T05:17:13.076Z,96485.28
2022-08-14T05:19:44.684Z,96490.09
2022-08-14T05:22:31.449Z,96491.00
2022-08-14T05:25:00.368Z,96491.03
2022-08-14T05:27:31.290Z,96496.25
2022-08-14T05:30:01.222Z,96487.56
2022-08-14T05:32:29.453Z,96488.00
2022-08-14T05:34:59.659Z,96475.75
2022-08-14T05:37:30.151Z,96484.09
2022-08-14T05:40:02.095Z,96491.25
2022-08-14T05:42:31.984Z,96489.69
2022-08-14T05:45:03.964Z,96498.41
2022-08-14T05:47:39.676Z,96505.56
2022-08-14T05:50:18.388Z,96506.72
2022-08-14T05:52:50.242Z,96512.72
2022-08-14T05:55:23.274Z,96518.31
2022-08-14T05:57:59.456Z,96520.31
2022-08-14T06:00:36.858Z,96526.28
2022-08-14T06:03:11.250Z,96532.97
2022-08-14T06:05:40.309Z,96526.50
2022-08-14T06:08:31.256Z,96524.34
2022-08-14T06:11:08.034Z,96530.44
2022-08-14T06:13:45.254Z,96529.56
2022-08-14T06:16:17.521Z,96526.75
2022-08-14T06:18:48.577Z,96529.94
2022-08-14T06:21:21.989Z,96524.38
2022-08-14T06:23:51.489Z,96520.44
2022-08-14T06:26:22.586Z,96516.94
2022-08-14T06:28:58.281Z,96518.88
2022-08-14T06:31:26.679Z,96522.47
2022-08-14T06:35:03.522Z,96521.69
2022-08-14T06:36:43.242Z,96523.75
2022-08-14T06:39:12.833Z,96532.56
2022-08-14T06:41:59.248Z,96531.50
2022-08-14T06:44:33.136Z,96526.19
2022-08-14T06:47:04.747Z,96530.47
2022-08-14T06:49:40.279Z,96535.59
2022-08-14T06:52:15.313Z,96537.88
2022-08-14T06:54:45.237Z,96529.75
2022-08-14T06:57:15.137Z,96533.97
2022-08-14T06:59:43.709Z,96534.41
2022-08-14T07:02:29.923Z,96533.03
2022-08-14T07:05:20.024Z,96539.16
2022-08-14T07:07:49.711Z,96533.81
2022-08-14T07:10:22.299Z,96528.72
2022-08-14T07:13:03.814Z,96522.28
2022-08-14T07:15:40.013Z,96521.28
2022-08-14T07:18:12.120Z,96527.41
2022-08-14T07:20:42.789Z,96524.41
2022-08-14T07:23:19.778Z,96533.75
2022-08-14T07:25:52.213Z,96526.81
2022-08-14T07:28:27.503Z,96521.44
2022-08-14T07:31:04.875Z,96509.84
2022-08-14T07:33:36.707Z,96502.56
2022-08-14T07:36:26.476Z,96496.38
2022-08-14T07:38:56.212Z,96506.47
2022-08-14T07:41:24.772Z,96501.13
2022-08-14T07:44:06.086Z,96494.56
2022-08-14T07:46:49.652Z,96488.06
2022-08-14T07:49:18.821Z,96482.50
2022-08-14T07:51:49.694Z,96470.41
2022-08-14T07:54:23.490Z,96459.47
2022-08-14T07:56:59.762Z,96467.06
2022-08-14T07:59:42.278Z,96465.53
2022-08-14T08:02:17.420Z,96473.78
2022-08-14T08:04:54.156Z,96467.09
2022-08-14T08:07:24.033Z,96461.84
2022-08-14T08:10:01.059Z,96471.16
2022-08-14T08:12:32.607Z,96467.66
2022-08-14T08:15:07.410Z,96458.91
2022-08-14T08:17:42.853Z,96452.56
2022-08-14T08:20:27.460Z,96451.84
2022-08-14T08:23:00.645Z,96446.25
2022-08-14T08:25:40.114Z,96446.25
2022-08-14T08:28:19.716Z,96455.66
2022-08-14T08:30:59.900Z,96452.81
2022-08-14T08:33:37.135Z,96451.72
2022-08-14T08:36:12.769Z,96456.53
2022-08-14T08:39:14.493Z,96452.53
2022-08-14T08:41:43.634Z,96454.22
2022-08-14T08:44:17.525Z,96452.59
2022-08-14T08:47:06.111Z,96459.75
2022-08-14T08:49:43.370Z,96448.50
2022-08-14T08:52:25.593Z,96453.25
2022-08-14T08:54:59.599Z,96443.31
2022-08-14T08:57:37.514Z,96445.00
2022-08-14T09:00:24.605Z,96438.56
2022-08-14T09:02:59.267Z,96442.13
2022-08-14T09:05:28.806Z,96442.84
2022-08-14T09:08:30.511Z,96443.97
2022-08-14T09:11:18.820Z,96440.94
2022-08-14T09:13:52.416Z,96437.50
2022-08-14T09:16:24.996Z,96444.25
2022-08-14T09:18:56.190Z,96444.94
2022-08-14T09:21:31.473Z,96442.41
2022-08-14T09:24:28.745Z,96433.59
2022-08-14T09:26:50.685Z,96434.78
2022-08-14T09:29:23.467Z,96419.44
2022-08-14T09:31:57.528Z,96413.84
2022-08-14T09:34:58.902Z,96403.94
2022-08-14T09:37:45.616Z,96414.19
2022-08-14T09:40:32.620Z,96414.72
2022-08-14T09:43:22.397Z,96413.06
2022-08-14T09:45:53.918Z,96414.78
2022-08-14T09:48:27.541Z,96417.56
2022-08-14T09:54:17.848Z,96421.31
2022-08-14T09:56:45.717Z,96415.28
2022-08-14T09:59:22.094Z,96406.00
2022-08-14T10:01:52.582Z,96408.16
2022-08-14T10:04:34.799Z,96407.94
2022-08-14T10:07:08.576Z,96393.28
2022-08-14T10:09:59.658Z,96396.88
2022-08-14T10:12:52.943Z,96394.56
2022-08-14T10:15:26.377Z,96392.41
2022-08-14T10:18:17.514Z,96387.16
2022-08-14T10:20:57.666Z,96392.03
2022-08-14T10:23:33.945Z,96379.19
2022-08-14T10:26:08.749Z,96384.81
2022-08-14T10:29:18.841Z,96391.50
2022-08-14T10:31:40.336Z,96381.31
2022-08-14T10:34:29.133Z,96375.97
2022-08-14T10:37:14.410Z,96379.53
2022-08-14T10:40:01.570Z,96373.28
2022-08-14T10:42:38.534Z,96366.81
2022-08-14T10:45:21.383Z,96351.81
2022-08-14T10:48:08.233Z,96368.28
2022-08-14T10:50:46.502Z,96366.38
2022-08-14T10:53:15.876Z,96364.03
2022-08-14T10:55:48.183Z,96355.44
2022-08-14T10:58:32.947Z,96353.19
2022-08-14T11:01:05.496Z,96350.13
2022-08-14T11:03:56.580Z,96346.09
2022-08-14T11:06:27.281Z,96347.28
2022-08-14T11:08:56.072Z,96351.50
2022-08-14T11:11:28.661Z,96347.44
2022-08-14T11:14:09.263Z,96346.44
2022-08-14T11:16:40.979Z,96342.28
2022-08-14T11:19:20.547Z,96334.66
2022-08-14T11:21:56.182Z,96342.19
2022-08-14T11:24:54.879Z,96336.81
2022-08-14T11:27:25.763Z,96334.44
2022-08-14T11:30:51.338Z,96329.88
2022-08-14T11:32:55.674Z,96328.06
2022-08-14T11:35:44.177Z,96320.81
2022-08-14T11:38:19.938Z,96318.13
2022-08-14T11:40:49.523Z,96310.69
2022-08-14T11:43:22.647Z,96303.44
2022-08-14T11:45:58.418Z,96296.19
2022-08-14T11:49:02.470Z,96292.50
2022-08-14T11:51:30.378Z,96284.84
2022-08-14T11:54:06.234Z,96286.75
2022-08-14T11:56:37.761Z,96289.47
2022-08-14T11:59:10.199Z,96285.56
2022-08-14T12:01:41.187Z,96277.13
2022-08-14T12:04:32.413Z,96272.09
2022-08-14T12:07:03.570Z,96270.56
2022-08-14T12:09:34.152Z,96265.06
2022-08-14T12:12:36.320Z,96265.09
2022-08-14T12:15:14.105Z,96252.88
2022-08-14T12:17:55.921Z,96255.94
2022-08-14T12:20:32.992Z,96243.16
2022-08-14T12:23:05.254Z,96251.41
2022-08-14T12:25:36.697Z,96252.69
2022-08-14T12:28:27.325Z,96255.56
2022-08-14T12:31:16.963Z,96250.66
2022-08-14T12:34:01.161Z,96237.19
2022-08-14T12:36:31.876Z,96232.53
2022-08-14T12:39:04.537Z,96230.47
2022-08-14T12:41:37.193Z,96229.59
2022-08-14T12:44:08.965Z,96227.41
2022-08-14T12:46:43.341Z,96216.25
2022-08-14T12:49:16.462Z,96231.31
2022-08-14T12:51:56.932Z,96209.28
2022-08-14T12:54:28.310Z,96212.56
2022-08-14T12:57:08.726Z,96208.19
2022-08-14T12:59:42.654Z,96200.25
2022-08-14T13:02:26.063Z,96204.75
2022-08-14T13:04:58.282Z,96199.31
2022-08-14T13:07:32.827Z,96195.84
2022-08-14T13:10:12.735Z,96193.13
2022-08-14T13:13:13.265Z,96181.28
2022-08-14T13:15:47.163Z,96180.44
2022-08-14T13:18:19.635Z,96169.88
2022-08-14T13:20:59.730Z,96162.38
2022-08-14T13:23:37.524Z,96163.91
2022-08-14T13:26:10.099Z,96163.19
2022-08-14T13:29:02.842Z,96165.69
2022-08-14T13:31:37.326Z,96158.06
2022-08-14T13:34:08.754Z,96144.13
2022-08-14T13:36:51.654Z,96139.59
2022-08-14T13:39:29.925Z,96140.38
2022-08-14T13:42:04.785Z,96130.72
2022-08-14T13:44:42.507Z,96128.06
2022-08-14T13:47:15.943Z,96130.31
2022-08-14T13:49:57.657Z,96127.63
2022-08-14T13:52:52.868Z,96112.63
2022-08-14T13:55:28.566Z,96121.19
2022-08-14T13:58:03.490Z,96116.34
2022-08-14T14:00:51.685Z,96112.97
2022-08-14T14:03:23.458Z,96111.34
2022-08-14T14:05:57.303Z,96110.72
2022-08-14T14:08:46.382Z,96098.47
2022-08-14T14:11:24.655Z,96105.72
2022-08-14T14:13:56.727Z,96101.63
2022-08-14T14:16:30.887Z,96104.97
2022-08-14T14:19:09.760Z,96095.59
2022-08-14T14:21:42.116Z,96091.25
2022-08-14T14:24:16.138Z,96092.50
2022-08-14T14:26:49.897Z,96095.41
2022-08-14T14:29:24.258Z,96099.81
2022-08-14T14:31:58.543Z,96090.72
2022-08-14T14:34:33.697Z,96081.44
2022-08-14T14:37:07.928Z,96082.97
2022-08-14T14:40:53.583Z,96082.66
2022-08-14T14:42:35.425Z,96074.06
2022-08-14T14:45:15.489Z,96078.41
2022-08-14T14:47:48.078Z,96080.69
2022-08-14T14:50:18.435Z,96069.13
2022-08-14T14:52:51.231Z,96073.59
2022-08-14T14:55:21.504Z,96074.16
2022-08-14T14:57:52.049Z,96071.38
2022-08-14T15:00:31.138Z,96077.31
2022-08-14T15:03:00.926Z,96072.41
2022-08-14T15:05:30.917Z,96065.38
2022-08-14T15:08:05.186Z,96059.94
2022-08-14T15:10:38.282Z,96057.09
2022-08-14T15:13:09.911Z,96049.59
2022-08-14T15:15:40.262Z,96062.84
2022-08-14T15:18:35.867Z,96057.66
2022-08-14T15:21:02.927Z,96055.56
2022-08-14T15:23:44.313Z,96046.97
2022-08-14T15:26:24.545Z,96042.84
2022-08-14T15:29:05.658Z,96046.94
2022-08-14T15:31:37.138Z,96049.75
2022-08-14T15:34:45.885Z,96037.34
2022-08-14T15:37:03.125Z,96034.66
2022-08-14T15:39:34.012Z,96036.53
2022-08-14T15:42:14.958Z,96037.56
2022-08-14T15:44:57.464Z,96033.34
2022-08-14T15:47:29.611Z,96041.06
2022-08-14T15:50:00.559Z,96035.22
2022-08-14T15:52:32.700Z,96036.44
2022-08-14T15:55:08.444Z,96028.34
2022-08-14T15:57:37.173Z,96033.84
2022-08-14T16:00:44.425Z,96028.09
2022-08-14T16:03:16.651Z,96024.91
2022-08-14T16:05:45.766Z,96023.63
2022-08-14T16:08:27.308Z,96021.88
2022-08-14T16:11:09.833Z,96017.69
2022-08-14T16:13:45.426Z,96020.13
2022-08-14T16:16:34.472Z,96014.56
2022-08-14T16:19:21.461Z,96013.91
2022-08-14T16:22:01.515Z,96010.19
2022-08-14T16:25:02.082Z,96007.72
2022-08-14T16:27:38.745Z,95999.00
2022-08-14T16:30:25.001Z,95993.13
2022-08-14T16:32:59.561Z,95987.00
2022-08-14T16:35:42.354Z,95994.13
2022-08-14T16:38:46.320Z,95982.72
2022-08-14T16:41:26.668Z,95989.63
2022-08-14T16:44:02.635Z,95989.53
2022-08-14T16:46:38.314Z,95990.78
2022-08-14T16:49:16.262Z,95988.28
2022-08-14T16:51:52.728Z,95986.50
2022-08-14T16:54:35.196Z,95991.69
2022-08-14T16:57:21.103Z,95985.16
2022-08-14T16:59:57.629Z,95991.59
2022-08-14T17:02:38.876Z,95991.06
2022-08-14T17:05:22.354Z,95982.59
2022-08-14T17:08:46.061Z,95984.88
2022-08-14T17:11:12.981Z,95980.63
2022-08-14T17:13:58.754Z,95974.06
2022-08-14T17:16:38.549Z,95979.53
2022-08-14T17:19:14.236Z,95984.84
2022-08-14T17:21:47.868Z,95984.94
2022-08-14T17:24:56.043Z,95991.09
2022-08-14T17:27:10.416Z,95993.44
2022-08-14T17:29:56.449Z,95997.66
2022-08-14T17:32:44.236Z,95990.63
2022-08-14T17:35:53.090Z,95984.72
2022-08-14T17:38:39.133Z,95992.75
2022-08-14T17:41:32.997Z,95987.88
2022-08-14T17:44:19.837Z,95985.53
2022-08-14T17:46:57.217Z,95987.19
2022-08-14T17:49:32.063Z,95983.44
2022-08-14T17:52:17.600Z,95993.50
2022-08-14T17:54:52.647Z,95999.78
2022-08-14T17:57:35.560Z,95997.06
2022-08-14T18:00:15.489Z,95990.09
2022-08-14T18:02:51.252Z,95996.13
2022-08-14T18:06:08.486Z,95988.97
2022-08-14T18:08:31.951Z,95998.50
2022-08-14T18:11:05.565Z,95996.06
2022-08-14T18:13:51.920Z,95994.66
2022-08-14T18:16:24.012Z,95995.63
2022-08-14T18:19:05.006Z,95995.09
2022-08-14T18:21:57.225Z,95998.34
2022-08-14T18:24:31.869Z,95994.78
2022-08-14T18:27:09.322Z,95999.63
2022-08-14T18:29:54.505Z,96000.53
2022-08-14T18:32:47.128Z,95995.97
2022-08-14T18:35:19.668Z,96000.09
2022-08-14T18:37:55.861Z,96004.41
2022-08-14T18:40:34.505Z,95997.34
2022-08-14T18:43:06.208Z,96000.78
2022-08-14T18:45:41.357Z,96001.63
2022-08-14T18:48:50.232Z,96000.13
2022-08-14T18:51:45.692Z,95996.75
2022-08-14T18:54:32.922Z,96010.03
2022-08-14T18:57:03.433Z,96000.22
2022-08-14T18:59:43.095Z,96006.66
2022-08-14T19:02:45.869Z,96009.38
2022-08-14T19:05:14.399Z,96010.91
2022-08-14T19:07:48.268Z,96015.38
2022-08-14T19:10:37.310Z,96022.53
2022-08-14T19:13:11.942Z,96030.19
2022-08-14T19:15:45.412Z,96019.19
2022-08-14T19:18:28.461Z,96014.34
2022-08-14T19:21:02.892Z,96024.41
2022-08-14T19:23:59.243Z,96020.22
2022-08-14T19:26:51.797Z,96027.84
2022-08-14T19:29:37.569Z,96028.34
2022-08-14T19:32:40.172Z,96026.06
2022-08-14T19:35:59.666Z,96036.28
2022-08-14T19:38:57.690Z,96026.53
2022-08-14T19:41:33.986Z,96034.56
2022-08-14T19:44:19.277Z,96038.13
2022-08-14T19:47:01.793Z,96030.50
2022-08-14T19:50:07.705Z,96037.13
2022-08-14T19:52:37.075Z,96030.50
2022-08-14T19:55:18.370Z,96034.97
2022-08-14T19:57:52.028Z,96032.84
2022-08-14T20:00:28.925Z,96035.56
2022-08-14T20:03:10.080Z,96043.00
2022-08-14T20:05:45.694Z,96041.16
2022-08-14T20:09:05.087Z,96033.97
2022-08-14T20:12:00.210Z,96036.78
2022-08-14T20:14:20.615Z,96036.13
2022-08-14T20:17:04.736Z,96035.28
2022-08-14T20:19:41.694Z,96031.88
2022-08-14T20:22:35.717Z,96032.41
2022-08-14T20:25:19.404Z,96029.41
2022-08-14T20:27:59.387Z,96029.34
2022-08-14T20:30:33.515Z,96032.41
2022-08-14T20:33:10.885Z,96035.50
2022-08-14T20:35:49.458Z,96031.19
2022-08-14T20:38:30.874Z,96033.84
2022-08-14T20:41:12.325Z,96040.78
2022-08-14T20:43:57.559Z,96039.25
2022-08-14T20:46:31.378Z,96038.00
2022-08-14T20:49:04.062Z,96036.78
2022-08-14T20:51:47.706Z,96035.78
2022-08-14T20:54:36.934Z,96034.81
2022-08-14T20:57:22.954Z,96041.22
2022-08-14T20:59:57.194Z,96041.28
2022-08-14T21:02:46.267Z,96042.09
2022-08-14T21:05:23.706Z,96038.22
2022-08-14T21:08:10.169Z,96031.59
2022-08-14T21:10:56.709Z,96044.72
2022-08-14T21:14:20.717Z,96045.13
2022-08-14T21:16:34.760Z,96052.75
2022-08-14T21:19:06.487Z,96055.59
2022-08-14T21:21:41.434Z,96057.19
2022-08-14T21:24:39.429Z,96056.44
2022-08-14T21:27:12.778Z,96061.22
2022-08-14T21:29:55.335Z,96057.63
2022-08-14T21:32:50.284Z,96057.16
2022-08-14T21:35:28.718Z,96055.88
2022-08-14T21:37:58.476Z,96048.72
2022-08-14T21:40:40.583Z,96049.06
2022-08-14T21:43:17.629Z,96039.94
2022-08-14T21:45:53.659Z,96042.72
2022-08-14T21:48:25.263Z,96051.88
2022-08-14T21:51:52.540Z,96046.72
2022-08-14T21:53:58.679Z,96045.13
2022-08-14T21:56:38.326Z,96043.97
2022-08-14T21:59:17.939Z,96052.34
2022-08-14T22:01:59.542Z,96051.56
2022-08-14T22:04:34.344Z,96053.16
2022-08-14T22:07:07.150Z,96046.41
2022-08-14T22:09:37.049Z,96048.75
2022-08-14T22:12:08.391Z,96051.53
2022-08-14T22:14:43.231Z,96044.34
2022-08-14T22:17:17.054Z,96043.53
2022-08-14T22:19:54.602Z,96040.84
2022-08-14T22:22:26.578Z,96038.50
2022-08-14T22:25:00.048Z,96038.47
2022-08-14T22:27:31.252Z,96034.91
2022-08-14T22:30:03.027Z,96042.81
2022-08-14T22:32:55.877Z,96034.56
2022-08-14T22:35:23.479Z,96038.09
2022-08-14T22:38:34.548Z,96041.66
2022-08-14T22:41:07.179Z,96040.22
2022-08-14T22:43:35.961Z,96050.47
2022-08-14T22:46:15.137Z,96046.56
2022-08-14T22:48:51.071Z,96043.41
2022-08-14T22:51:23.827Z,96050.44
2022-08-14T22:53:56.737Z,96061.53
2022-08-14T22:56:30.041Z,96057.63
2022-08-14T22:59:01.765Z,96052.16
2022-08-14T23:01:55.426Z,96058.91
2022-08-14T23:04:34.907Z,96060.50
2022-08-14T23:07:22.086Z,96054.59
2022-08-14T23:09:57.679Z,96057.78
2022-08-14T23:12:54.193Z,96055.81
2022-08-14T23:15:28.929Z,96063.69
2022-08-14T23:17:59.437Z,96057.75
2022-08-14T23:20:29.312Z,96055.38
2022-08-14T23:22:59.168Z,96056.97
2022-08-14T23:25:56.718Z,96058.94
2022-08-14T23:28:34.674Z,96056.19
2022-08-14T23:31:16.071Z,96050.63
2022-08-14T23:34:07.115Z,96060.06
2022-08-14T23:36:53.304Z,96061.63
2022-08-14T23:39:29.556Z,96057.66
2022-08-14T23:42:04.429Z,96049.31
2022-08-14T23:44:37.581Z,96050.53
2022-08-14T23:47:11.507Z,96045.75
2022-08-14T23:50:00.968Z,96049.63
2022-08-14T23:52:50.942Z,96047.19
2022-08-14T23:55:24.533Z,96037.59
2022-08-14T23:57:57.728Z,96039.59
